Pagrindinis puslapis
METAR-TAF:

METAR-TAF

Oro uostai :

Kerdla, Estija

platuma: 58-59N, ilguma: 022-49E, Aukštis: 5 m

Dabartinis oras

Ataskaita buvo paskelbta 51 minutes, ne 10:50 UTC
Vėjas 11 kt iš Vakarų, svyruoja nuo Pietvakarių ir Šiaurės Vakarų
Temperatūra 19°C
Drėgmė 56%
Slėgis 1025 hPa
Matomumas 10 km arba daugiau
Mažai debesys ne aukštis 3000 ft

METAR: EEKA 221050Z 27011KT 230V310 9999 FEW030 19/10 Q1025

Laikas: 14:41 (11:41 UTC)

Prognozė

Ataskaita buvo paskelbta 8 valandos ir 41 minutes, ne 03:00 UTC
Prognozė galioja nuo 22 metu 04 UTC su 22 metu 10 UTC
Vėjas 10 kt iš Pietų/Pietvakarių
Matomumas 10 km arba daugiau
Išsisklaidę debesys ne aukštis 3000 ft
Laikinai
nuo 22 metu 04 UTC su 22 metu 10 UTC
Išsisklaidę debesys ne aukštis 2000 ft, Liūtiniai kamuoliniai debesys.
Laikinai
nuo 22 metu 08 UTC su 22 metu 10 UTC
Vėjas 15 kt iš Vakarų/Pietvakarių su gūsio iki 25 kt

TAF: EEKA 220300Z 2204/2210 20010KT 9999 SCT030 TEMPO 2204/2210 SCT020CB TEMPO 2208/2210 24015G25KT

Orai ataskaitas ir orų prognozės (METAR, TAF).

turimą stotys yra geltonos ir raudonos taškus žemėlapyje.

Perkelti pele per norėdami pamatyti stoties vardą.

Tada spustelėkite, norėdami matyti oro stebėjimo ir prognozės.

Norėdami pakeisti žemėlapį: spustelėkite ant žalios mygtukų su juodo kryžiaus žemyn,; žalią mygtuką su brūkšneliu, jei norite nutolinti; arba žalių rodyklių gretimoms žemėlapius.


METAR-TAF: